Time;durP1;ratioP1;P1;durP2;ratioP2;P2;SDS_P1;SDS_P2;PMS_P1;PMS_P2;Temp;Humidity;BMP_temperature;BMP_pressure;BME280_temperature;BME280_humidity;BME280_pressure;Samples;Min_cycle;Max_cycle;Signal;HPM_P1;HPM_P2
2023/12/25 00:01:51;;;;;;;8.23;5.00;;;12.20;99.90;;;;;;5114867;28;20175;-72
2023/12/25 00:04:16;;;;;;;6.27;5.07;;;12.10;99.90;;;;;;5114939;28;20199;-72
2023/12/25 00:06:42;;;;;;;6.23;4.60;;;12.10;99.90;;;;;;5114956;28;20182;-72
2023/12/25 00:09:08;;;;;;;8.70;4.40;;;12.10;99.90;;;;;;5114578;28;20167;-72
2023/12/25 00:11:33;;;;;;;7.27;4.73;;;12.10;99.90;;;;;;5114694;28;20183;-72
2023/12/25 00:13:59;;;;;;;11.67;5.10;;;12.10;99.90;;;;;;5114471;28;20235;-72
2023/12/25 00:16:26;;;;;;;4.90;4.40;;;12.10;99.90;;;;;;5114603;28;20306;-72
2023/12/25 00:18:51;;;;;;;6.03;4.60;;;12.10;99.90;;;;;;5096375;28;20199;-72
2023/12/25 00:21:17;;;;;;;5.00;4.53;;;12.10;99.90;;;;;;5114574;28;20258;-72
2023/12/25 00:23:43;;;;;;;5.40;4.70;;;12.20;99.90;;;;;;5114137;28;20183;-72
2023/12/25 00:26:08;;;;;;;5.27;4.40;;;12.10;99.90;;;;;;5114470;28;20175;-71
2023/12/25 00:28:34;;;;;;;7.13;3.97;;;12.10;99.90;;;;;;5113787;28;20226;-72
2023/12/25 00:31:00;;;;;;;3.60;3.30;;;12.10;99.90;;;;;;5114194;28;20177;-72
2023/12/25 00:33:25;;;;;;;3.97;3.23;;;12.10;99.90;;;;;;5114567;28;20173;-72
2023/12/25 00:35:51;;;;;;;4.50;3.00;;;12.20;99.90;;;;;;5114281;28;20630;-71
2023/12/25 00:38:16;;;;;;;4.27;3.03;;;12.20;99.90;;;;;;5114201;28;20230;-72
2023/12/25 00:40:42;;;;;;;3.43;2.53;;;12.20;99.90;;;;;;5114291;28;20177;-71
2023/12/25 00:43:07;;;;;;;3.33;2.57;;;12.20;99.90;;;;;;5114490;28;20641;-71
2023/12/25 00:45:33;;;;;;;4.40;2.40;;;12.20;99.90;;;;;;5114045;28;20247;-71
2023/12/25 00:47:59;;;;;;;2.03;1.93;;;12.20;99.90;;;;;;5114288;28;20181;-72
2023/12/25 00:50:24;;;;;;;2.73;2.00;;;12.10;99.90;;;;;;5114034;28;20163;-71
2023/12/25 00:52:50;;;;;;;3.40;2.13;;;12.20;99.90;;;;;;5113746;28;20178;-71
2023/12/25 00:55:15;;;;;;;2.00;1.90;;;12.10;99.90;;;;;;5114051;28;20175;-70
2023/12/25 00:57:41;;;;;;;2.47;2.27;;;12.00;99.90;;;;;;5113921;28;20210;-72
2023/12/25 01:00:07;;;;;;;2.17;1.97;;;12.10;99.90;;;;;;5113528;28;20179;-71
2023/12/25 01:02:32;;;;;;;3.53;2.17;;;12.10;99.90;;;;;;5113704;28;20270;-72
2023/12/25 01:04:58;;;;;;;3.07;2.10;;;12.10;99.90;;;;;;5113899;28;20233;-71
2023/12/25 01:07:23;;;;;;;2.00;1.87;;;12.10;99.90;;;;;;5113591;28;20524;-71
2023/12/25 01:09:49;;;;;;;1.90;1.80;;;12.10;99.90;;;;;;5114076;28;20175;-72
2023/12/25 01:12:14;;;;;;;2.00;1.90;;;12.10;99.90;;;;;;5113818;28;20191;-71
2023/12/25 01:14:44;;;;;;;2.00;1.80;;;12.00;99.90;;;;;;5113615;28;20204;-71
2023/12/25 01:17:10;;;;;;;2.17;2.00;;;12.10;99.90;;;;;;5113663;28;20281;-72
2023/12/25 01:19:35;;;;;;;2.03;1.93;;;12.10;99.90;;;;;;5113855;28;20174;-71
2023/12/25 01:22:01;;;;;;;1.87;1.77;;;12.10;99.90;;;;;;5113255;28;20250;-72
2023/12/25 01:24:26;;;;;;;2.93;2.00;;;12.10;99.90;;;;;;5113664;28;20577;-71
2023/12/25 01:26:52;;;;;;;2.47;2.00;;;12.10;99.90;;;;;;5113306;28;20174;-73
2023/12/25 01:29:18;;;;;;;2.17;1.80;;;12.00;99.90;;;;;;5113547;28;20626;-73
2023/12/25 01:31:43;;;;;;;2.10;1.90;;;12.00;99.90;;;;;;5113518;28;20163;-71
2023/12/25 01:34:09;;;;;;;2.33;2.13;;;12.00;99.90;;;;;;5113603;28;20167;-72
2023/12/25 01:36:35;;;;;;;2.20;2.00;;;12.10;99.90;;;;;;5113181;28;20195;-71
2023/12/25 01:39:02;;;;;;;2.23;2.00;;;12.10;99.90;;;;;;5095198;28;20545;-71
2023/12/25 01:41:27;;;;;;;3.90;1.83;;;12.10;99.90;;;;;;5095108;28;20179;-71
2023/12/25 01:43:53;;;;;;;3.17;2.83;;;12.10;99.90;;;;;;5113204;28;20185;-71
2023/12/25 01:46:18;;;;;;;2.70;2.50;;;12.10;99.90;;;;;;5113428;28;20220;-71
2023/12/25 01:48:49;;;;;;;2.23;2.10;;;12.10;99.90;;;;;;5113513;28;20651;-72
2023/12/25 01:51:15;;;;;;;3.10;2.53;;;12.10;99.90;;;;;;5113163;28;20223;-72
2023/12/25 01:53:40;;;;;;;2.70;2.40;;;12.10;99.90;;;;;;5113524;28;20179;-71
2023/12/25 01:56:06;;;;;;;2.63;2.40;;;12.10;99.90;;;;;;5113353;28;20171;-72
2023/12/25 01:58:32;;;;;;;3.67;2.47;;;12.10;99.90;;;;;;5113107;28;20215;-72
2023/12/25 02:00:57;;;;;;;3.10;2.70;;;12.20;99.90;;;;;;5095307;28;20618;-71
2023/12/25 02:03:23;;;;;;;4.37;3.00;;;12.20;99.90;;;;;;5113453;28;20588;-71
2023/12/25 02:05:49;;;;;;;4.70;2.90;;;12.20;99.90;;;;;;5113067;28;20262;-72
2023/12/25 02:08:17;;;;;;;5.37;3.33;;;12.20;99.90;;;;;;5113329;28;20178;-71
2023/12/25 02:10:42;;;;;;;3.77;3.33;;;12.30;99.90;;;;;;5113194;28;20167;-71
2023/12/25 02:13:08;;;;;;;5.13;3.40;;;12.20;99.90;;;;;;5116242;28;20194;-71
2023/12/25 02:15:34;;;;;;;4.13;3.50;;;12.30;99.90;;;;;;5117092;28;20163;-72
2023/12/25 02:18:01;;;;;;;5.27;3.60;;;12.30;99.90;;;;;;5117240;28;20210;-72
2023/12/25 02:20:26;;;;;;;4.83;3.53;;;12.20;99.90;;;;;;5098620;28;20216;-74
2023/12/25 02:22:53;;;;;;;4.20;3.70;;;12.20;99.90;;;;;;5117096;28;20254;-72
2023/12/25 02:25:31;;;;;;;4.43;3.70;;;12.10;99.90;;;;;;5098722;28;20644;-71
2023/12/25 02:27:57;;;;;;;4.00;3.07;;;12.10;99.90;;;;;;5086149;28;20234;-71
2023/12/25 02:30:23;;;;;;;3.33;3.03;;;12.10;99.90;;;;;;5076465;28;20164;-70
2023/12/25 02:32:48;;;;;;;4.37;2.93;;;12.10;99.90;;;;;;5076244;28;20658;-70
2023/12/25 02:35:14;;;;;;;3.77;2.80;;;12.00;99.90;;;;;;5075831;28;20227;-71
2023/12/25 02:37:40;;;;;;;2.90;2.70;;;12.10;99.90;;;;;;5074959;28;20642;-72
2023/12/25 02:40:06;;;;;;;2.70;2.50;;;12.10;99.90;;;;;;5076190;28;20173;-70
2023/12/25 02:42:32;;;;;;;4.00;2.70;;;12.00;99.90;;;;;;5076102;28;20208;-71
2023/12/25 02:44:57;;;;;;;2.90;2.70;;;11.90;99.90;;;;;;5076270;28;20178;-71
2023/12/25 02:47:23;;;;;;;2.87;2.60;;;12.00;99.90;;;;;;5076138;28;20165;-71
2023/12/25 02:49:48;;;;;;;2.63;2.43;;;12.00;99.90;;;;;;5075606;28;20172;-70
2023/12/25 02:52:14;;;;;;;2.90;2.70;;;11.90;99.90;;;;;;5074575;28;20290;-72
2023/12/25 02:54:39;;;;;;;2.13;2.03;;;11.90;99.90;;;;;;5075841;28;20177;-72
2023/12/25 02:57:05;;;;;;;2.50;2.30;;;12.00;99.90;;;;;;5075964;28;20200;-71
2023/12/25 02:59:30;;;;;;;2.30;2.20;;;11.90;99.90;;;;;;5075731;28;20616;-71
2023/12/25 03:01:56;;;;;;;4.87;2.73;;;11.90;99.90;;;;;;5075805;28;20246;-71
2023/12/25 03:04:22;;;;;;;2.17;2.07;;;11.90;99.90;;;;;;5075376;28;20633;-71
2023/12/25 03:06:47;;;;;;;2.50;2.30;;;11.90;99.90;;;;;;5075597;28;20168;-69
2023/12/25 03:09:13;;;;;;;2.60;2.40;;;11.90;99.90;;;;;;5075574;28;20200;-69
2023/12/25 03:11:38;;;;;;;3.43;2.60;;;11.90;99.90;;;;;;5075356;28;20173;-70
2023/12/25 03:14:04;;;;;;;2.70;2.50;;;11.90;99.90;;;;;;5074277;28;20173;-70
2023/12/25 03:16:29;;;;;;;2.43;2.33;;;11.90;99.90;;;;;;5075542;28;20180;-70
2023/12/25 03:18:55;;;;;;;2.53;2.43;;;11.90;99.90;;;;;;5075160;28;20255;-70
2023/12/25 03:21:21;;;;;;;2.30;2.20;;;11.90;99.90;;;;;;5075486;28;20180;-71
2023/12/25 03:23:47;;;;;;;2.10;2.00;;;11.80;99.90;;;;;;5075105;28;20583;-70
2023/12/25 03:26:13;;;;;;;2.40;2.30;;;11.80;99.90;;;;;;5075270;28;20181;-71
2023/12/25 03:28:39;;;;;;;2.70;2.50;;;11.80;99.90;;;;;;5104655;28;20689;-70
2023/12/25 03:31:04;;;;;;;2.33;2.13;;;11.90;99.90;;;;;;5115883;28;20266;-70
2023/12/25 03:33:30;;;;;;;2.23;2.03;;;11.90;99.90;;;;;;5115528;28;20246;-71
2023/12/25 03:35:55;;;;;;;2.50;2.40;;;11.80;99.90;;;;;;5115881;28;20182;-70
2023/12/25 03:38:21;;;;;;;2.30;2.20;;;11.90;99.90;;;;;;5097292;28;20210;-70
2023/12/25 03:40:47;;;;;;;2.60;1.97;;;11.90;99.90;;;;;;5115476;28;20168;-70
2023/12/25 03:43:12;;;;;;;2.10;2.00;;;11.80;99.90;;;;;;5115621;28;20179;-71
2023/12/25 03:45:38;;;;;;;2.20;2.10;;;11.90;99.90;;;;;;5115518;28;20190;-69
2023/12/25 03:48:04;;;;;;;1.90;1.80;;;11.80;99.90;;;;;;5115168;28;20236;-70
2023/12/25 03:50:29;;;;;;;4.87;2.47;;;11.80;99.90;;;;;;5115456;28;20171;-70
2023/12/25 03:52:55;;;;;;;1.90;1.80;;;11.80;99.90;;;;;;5097167;28;20241;-70
2023/12/25 03:55:20;;;;;;;2.07;1.87;;;11.90;99.90;;;;;;5115209;28;20189;-70
2023/12/25 03:57:46;;;;;;;2.10;1.90;;;11.80;99.90;;;;;;5115361;28;20682;-70
2023/12/25 04:00:12;;;;;;;1.80;1.70;;;11.80;99.90;;;;;;5115342;28;20662;-70
2023/12/25 04:02:38;;;;;;;2.30;2.10;;;11.80;99.90;;;;;;5114861;28;20705;-70
2023/12/25 04:05:04;;;;;;;2.17;2.00;;;11.90;99.90;;;;;;5115112;28;20173;-71
2023/12/25 04:07:30;;;;;;;1.93;1.80;;;11.80;99.90;;;;;;5115032;28;20186;-70
2023/12/25 04:09:56;;;;;;;2.10;2.00;;;11.80;99.90;;;;;;5114858;28;20163;-71
2023/12/25 04:12:22;;;;;;;2.30;2.00;;;11.70;99.90;;;;;;5114856;28;20260;-70
2023/12/25 04:14:47;;;;;;;1.97;1.87;;;11.70;99.90;;;;;;5115035;28;20171;-70
2023/12/25 04:17:13;;;;;;;1.80;1.70;;;11.80;99.90;;;;;;5114118;28;20568;-70
2023/12/25 04:19:40;;;;;;;1.97;1.87;;;11.70;99.90;;;;;;5114577;28;20182;-70
2023/12/25 04:22:06;;;;;;;2.10;1.90;;;11.80;99.90;;;;;;5114702;28;20171;-71
2023/12/25 04:24:31;;;;;;;3.20;1.80;;;11.80;99.90;;;;;;5096355;28;20198;-70
2023/12/25 04:26:57;;;;;;;1.63;1.53;;;11.80;99.90;;;;;;5114357;28;20175;-72
2023/12/25 04:29:22;;;;;;;1.87;1.50;;;11.80;99.90;;;;;;5114481;28;20186;-70
2023/12/25 04:31:49;;;;;;;1.70;1.60;;;11.70;99.90;;;;;;5096040;28;20171;-70
2023/12/25 04:34:14;;;;;;;1.60;1.50;;;11.70;99.90;;;;;;5095539;28;20167;-71
2023/12/25 04:36:40;;;;;;;2.63;1.60;;;11.80;99.90;;;;;;5114176;28;20168;-71
2023/12/25 04:39:06;;;;;;;1.93;1.60;;;11.70;99.90;;;;;;5114434;28;20190;-72
2023/12/25 04:41:31;;;;;;;1.63;1.53;;;11.70;99.90;;;;;;5114167;28;20170;-72
2023/12/25 04:43:57;;;;;;;2.90;1.77;;;11.70;99.90;;;;;;5113873;28;20179;-71
2023/12/25 04:46:22;;;;;;;1.87;1.77;;;11.80;99.90;;;;;;5114490;28;20172;-71
2023/12/25 04:48:48;;;;;;;1.97;1.80;;;11.70;99.90;;;;;;5096028;28;20254;-71
2023/12/25 04:51:14;;;;;;;1.80;1.70;;;11.70;99.90;;;;;;5114128;28;20174;-70
2023/12/25 04:53:39;;;;;;;2.30;1.90;;;11.70;99.90;;;;;;5114084;28;20190;-71
2023/12/25 04:56:08;;;;;;;1.87;1.77;;;11.80;99.90;;;;;;5113918;28;20216;-71
2023/12/25 04:58:34;;;;;;;4.20;2.20;;;11.80;99.90;;;;;;5113752;28;20215;-70
2023/12/25 05:00:59;;;;;;;4.13;2.30;;;11.70;99.90;;;;;;5114368;28;20170;-71
2023/12/25 05:03:25;;;;;;;2.47;1.50;;;11.70;99.90;;;;;;5095762;28;20183;-70
2023/12/25 05:05:51;;;;;;;1.60;1.50;;;11.70;99.90;;;;;;5095768;28;20175;-70
2023/12/25 05:08:18;;;;;;;1.70;1.43;;;11.80;99.90;;;;;;5113945;28;20167;-70
2023/12/25 05:10:44;;;;;;;4.10;1.40;;;11.80;99.90;;;;;;5113913;28;20163;-70
2023/12/25 05:13:09;;;;;;;1.27;1.17;;;11.80;99.90;;;;;;5113388;28;20190;-71
2023/12/25 05:15:35;;;;;;;1.40;1.30;;;11.80;99.90;;;;;;5113898;28;20190;-71
2023/12/25 05:18:01;;;;;;;1.30;1.20;;;11.80;99.90;;;;;;5113790;28;20681;-70
2023/12/25 05:20:26;;;;;;;1.10;1.10;;;11.80;99.90;;;;;;5113577;28;20171;-70
2023/12/25 05:22:52;;;;;;;0.90;0.90;;;11.70;99.90;;;;;;5113560;28;20167;-70
2023/12/25 05:25:18;;;;;;;1.10;1.10;;;11.80;99.90;;;;;;5095455;28;20178;-71
2023/12/25 05:27:44;;;;;;;1.13;1.10;;;11.80;99.90;;;;;;5112878;28;20219;-70
2023/12/25 05:30:10;;;;;;;1.20;1.20;;;11.80;99.90;;;;;;5113776;28;20188;-70
2023/12/25 05:32:36;;;;;;;1.10;1.10;;;11.70;99.90;;;;;;5113859;28;20171;-71
2023/12/25 05:35:06;;;;;;;0.80;0.80;;;11.80;99.90;;;;;;5113477;28;20167;-71
2023/12/25 05:37:32;;;;;;;0.73;0.70;;;11.70;99.90;;;;;;5113573;28;20741;-71
2023/12/25 05:39:57;;;;;;;1.00;0.93;;;11.80;99.90;;;;;;5113686;28;20277;-71
2023/12/25 05:42:23;;;;;;;0.90;0.90;;;11.80;99.90;;;;;;5112963;28;20186;-71
2023/12/25 05:44:48;;;;;;;0.70;0.70;;;11.70;99.90;;;;;;5113368;28;20163;-70
2023/12/25 05:47:14;;;;;;;1.43;0.90;;;11.70;99.90;;;;;;5098432;28;20727;-70
2023/12/25 05:49:40;;;;;;;0.70;0.70;;;11.70;99.90;;;;;;5117290;28;20163;-71
2023/12/25 05:52:05;;;;;;;1.23;0.80;;;11.70;99.90;;;;;;5099316;28;20190;-70
2023/12/25 05:54:31;;;;;;;0.80;0.80;;;11.70;99.90;;;;;;5117655;28;20173;-70
2023/12/25 05:56:57;;;;;;;1.70;0.90;;;11.70;99.90;;;;;;5117120;28;20197;-71
2023/12/25 05:59:23;;;;;;;0.90;0.90;;;11.80;99.90;;;;;;5116744;28;20182;-71
2023/12/25 06:01:49;;;;;;;1.00;0.90;;;11.80;99.90;;;;;;5117431;28;20179;-70
2023/12/25 06:04:14;;;;;;;0.87;0.80;;;11.70;99.90;;;;;;5099043;28;20273;-71
2023/12/25 06:06:40;;;;;;;1.00;1.00;;;11.80;99.90;;;;;;5099112;28;20582;-71
2023/12/25 06:09:06;;;;;;;0.77;0.77;;;11.80;99.90;;;;;;5117227;28;20209;-71
2023/12/25 06:11:34;;;;;;;1.30;0.90;;;11.80;99.90;;;;;;5116593;28;20175;-70
2023/12/25 06:13:59;;;;;;;0.70;0.70;;;11.80;99.90;;;;;;5117239;28;20159;-70
2023/12/25 06:16:25;;;;;;;0.83;0.70;;;11.80;99.90;;;;;;5117067;28;20191;-70
2023/12/25 06:18:50;;;;;;;2.03;0.90;;;11.80;99.90;;;;;;5116784;28;20222;-70
2023/12/25 06:21:16;;;;;;;0.97;0.90;;;11.80;99.90;;;;;;5116705;28;20508;-70
2023/12/25 06:23:43;;;;;;;1.60;0.80;;;11.80;99.90;;;;;;5116895;28;20171;-71
2023/12/25 06:26:08;;;;;;;0.80;0.80;;;11.80;99.90;;;;;;5116537;28;20638;-70
2023/12/25 06:28:34;;;;;;;0.70;0.70;;;11.80;99.90;;;;;;5116497;28;20223;-71
2023/12/25 06:30:59;;;;;;;0.70;0.70;;;11.80;99.90;;;;;;5116996;28;20182;-72
2023/12/25 06:33:25;;;;;;;1.30;0.90;;;11.80;99.90;;;;;;5116550;28;20179;-71
2023/12/25 06:35:51;;;;;;;0.97;0.50;;;11.80;99.90;;;;;;5116996;28;20265;-71
2023/12/25 06:38:17;;;;;;;0.67;0.67;;;11.80;99.90;;;;;;5116675;28;20214;-72
2023/12/25 06:40:42;;;;;;;0.70;0.70;;;11.90;99.90;;;;;;5116111;28;20185;-70
2023/12/25 06:43:08;;;;;;;0.70;0.70;;;11.80;99.90;;;;;;5116754;28;20171;-71
2023/12/25 06:45:34;;;;;;;0.63;0.63;;;11.80;99.90;;;;;;5116261;28;20163;-71
2023/12/25 06:48:00;;;;;;;0.90;0.90;;;11.90;99.90;;;;;;5098201;28;20176;-71
2023/12/25 06:50:26;;;;;;;0.80;0.80;;;11.80;99.90;;;;;;5098165;28;20693;-71
2023/12/25 06:52:51;;;;;;;0.67;0.67;;;11.90;99.90;;;;;;5098113;28;20266;-71
2023/12/25 06:55:17;;;;;;;0.83;0.83;;;11.90;99.90;;;;;;5115969;28;20168;-72
2023/12/25 06:57:43;;;;;;;0.80;0.80;;;11.80;99.90;;;;;;5115236;28;20214;-70
2023/12/25 07:00:11;;;;;;;0.90;0.70;;;11.90;99.90;;;;;;5116205;28;20171;-70
2023/12/25 07:02:37;;;;;;;0.70;0.70;;;11.90;99.90;;;;;;5116050;28;20231;-71
2023/12/25 07:05:04;;;;;;;1.40;0.73;;;11.80;99.90;;;;;;5116142;28;20532;-70
2023/12/25 07:07:30;;;;;;;0.70;0.70;;;11.80;99.90;;;;;;5116085;28;20168;-71
2023/12/25 07:09:55;;;;;;;0.70;0.70;;;11.80;99.90;;;;;;5115606;28;20175;-70
2023/12/25 07:12:23;;;;;;;0.70;0.70;;;11.80;99.90;;;;;;5116032;28;20202;-70
2023/12/25 07:14:48;;;;;;;0.70;0.70;;;11.80;99.90;;;;;;5116026;28;20167;-70
2023/12/25 07:17:14;;;;;;;2.60;0.90;;;11.90;99.90;;;;;;5097669;28;20256;-71
2023/12/25 07:19:40;;;;;;;0.60;0.60;;;11.80;99.90;;;;;;5115786;28;20179;-70
2023/12/25 07:22:06;;;;;;;0.70;0.70;;;11.90;99.90;;;;;;5115489;28;20175;-71
2023/12/25 07:24:31;;;;;;;0.63;0.63;;;11.80;99.90;;;;;;5115522;28;20168;-71
2023/12/25 07:26:57;;;;;;;1.17;1.17;;;11.80;99.90;;;;;;5115461;28;20199;-71
2023/12/25 07:29:23;;;;;;;0.50;0.50;;;11.80;99.90;;;;;;5097502;28;20248;-70
2023/12/25 07:31:49;;;;;;;0.80;0.80;;;11.90;99.90;;;;;;5115642;28;20603;-71
2023/12/25 07:34:14;;;;;;;0.50;0.50;;;11.80;99.90;;;;;;5115510;28;20623;-71
2023/12/25 07:36:40;;;;;;;0.50;0.50;;;11.90;99.90;;;;;;5115585;28;20172;-71
2023/12/25 07:39:05;;;;;;;0.80;0.80;;;11.80;99.90;;;;;;5115578;28;20175;-71
2023/12/25 07:41:33;;;;;;;0.57;0.57;;;11.80;99.90;;;;;;5115513;28;20557;-71
2023/12/25 07:44:00;;;;;;;0.50;0.50;;;11.80;99.90;;;;;;5115087;28;20622;-71
2023/12/25 07:46:27;;;;;;;0.63;0.63;;;11.90;99.90;;;;;;5115218;28;20166;-71
2023/12/25 07:48:53;;;;;;;0.87;0.87;;;11.90;99.90;;;;;;5115141;28;20203;-70
2023/12/25 07:51:18;;;;;;;0.80;0.70;;;11.80;99.90;;;;;;5114844;28;20178;-71
2023/12/25 07:53:44;;;;;;;1.00;1.00;;;11.90;99.90;;;;;;5115039;28;20163;-70
2023/12/25 07:56:10;;;;;;;0.80;0.80;;;11.90;99.90;;;;;;5114988;28;20254;-71
2023/12/25 07:58:36;;;;;;;0.90;0.90;;;11.90;99.90;;;;;;5114856;28;20536;-70
2023/12/25 08:01:02;;;;;;;1.00;1.00;;;11.90;99.90;;;;;;5115019;28;20247;-71
2023/12/25 08:03:28;;;;;;;0.73;0.73;;;11.90;99.90;;;;;;5115028;28;20265;-71
2023/12/25 08:05:53;;;;;;;1.00;1.00;;;11.90;99.90;;;;;;5114981;28;20650;-71
2023/12/25 08:08:19;;;;;;;1.23;1.13;;;11.90;99.90;;;;;;5114480;28;20626;-71
2023/12/25 08:10:45;;;;;;;0.90;0.90;;;11.90;99.90;;;;;;5113475;28;20573;-71
2023/12/25 08:13:10;;;;;;;1.00;1.00;;;11.90;99.90;;;;;;5114648;28;20195;-71
2023/12/25 08:15:36;;;;;;;1.30;1.20;;;12.00;99.90;;;;;;5114618;28;20175;-71
2023/12/25 08:18:03;;;;;;;1.30;1.20;;;11.90;99.90;;;;;;5114770;28;20223;-71
2023/12/25 08:20:28;;;;;;;1.20;1.20;;;11.90;99.90;;;;;;5114375;28;20163;-71
2023/12/25 08:22:54;;;;;;;1.13;1.13;;;11.90;99.90;;;;;;5114277;28;20571;-71
2023/12/25 08:25:19;;;;;;;1.10;1.10;;;12.00;99.90;;;;;;5114668;28;20178;-70
2023/12/25 08:27:45;;;;;;;1.00;1.00;;;12.00;99.90;;;;;;5113860;28;20223;-71
2023/12/25 08:30:11;;;;;;;1.47;1.37;;;12.00;99.90;;;;;;5096548;28;20194;-71
2023/12/25 08:32:37;;;;;;;1.80;1.50;;;12.00;99.90;;;;;;5114926;28;20175;-71
2023/12/25 08:35:03;;;;;;;1.50;1.50;;;12.00;99.90;;;;;;5114524;28;20202;-71
2023/12/25 08:37:29;;;;;;;1.13;1.13;;;12.00;99.90;;;;;;5113335;28;20284;-71
2023/12/25 08:39:55;;;;;;;1.53;1.40;;;12.00;99.90;;;;;;5095419;28;20175;-71
2023/12/25 08:42:20;;;;;;;1.53;1.53;;;12.10;99.90;;;;;;5114629;28;20202;-71
2023/12/25 08:44:47;;;;;;;1.47;1.40;;;12.10;99.90;;;;;;5113927;28;20217;-71
2023/12/25 08:47:14;;;;;;;1.47;1.47;;;12.10;99.90;;;;;;5114200;28;20171;-72
2023/12/25 08:49:40;;;;;;;1.60;1.50;;;12.10;99.90;;;;;;5113623;28;20171;-71
2023/12/25 08:52:06;;;;;;;1.90;1.80;;;12.10;99.90;;;;;;5095813;28;20243;-72
2023/12/25 08:54:31;;;;;;;1.90;1.80;;;12.10;99.90;;;;;;5113755;28;20167;-71
2023/12/25 08:56:59;;;;;;;2.10;1.90;;;12.10;99.90;;;;;;5113395;28;20170;-71
2023/12/25 08:59:25;;;;;;;2.00;1.90;;;12.10;99.90;;;;;;5113734;28;20182;-71
2023/12/25 09:01:51;;;;;;;2.10;2.00;;;12.20;99.90;;;;;;5113676;28;20171;-71
2023/12/25 09:04:16;;;;;;;2.00;1.90;;;12.20;99.90;;;;;;5113824;28;20167;-71
2023/12/25 09:06:42;;;;;;;2.30;2.20;;;12.20;99.90;;;;;;5095244;28;20240;-72
2023/12/25 09:09:09;;;;;;;2.13;2.03;;;12.20;99.90;;;;;;5113847;28;20206;-71
2023/12/25 09:11:35;;;;;;;2.20;2.10;;;12.20;99.90;;;;;;5094952;28;20167;-70
2023/12/25 09:14:01;;;;;;;2.40;2.20;;;12.20;99.90;;;;;;5113709;28;20178;-71
2023/12/25 09:16:28;;;;;;;2.10;2.00;;;12.20;99.90;;;;;;5113640;28;20167;-71
2023/12/25 09:18:54;;;;;;;2.40;2.30;;;12.20;99.90;;;;;;5113671;28;20682;-72
2023/12/25 09:21:20;;;;;;;2.23;2.03;;;12.20;99.90;;;;;;5112173;28;20163;-72
2023/12/25 09:23:46;;;;;;;2.10;2.00;;;12.20;99.90;;;;;;5113520;28;20268;-71
2023/12/25 09:26:19;;;;;;;2.33;2.13;;;12.30;99.90;;;;;;5113692;28;20203;-71
2023/12/25 09:28:45;;;;;;;2.20;2.10;;;12.30;99.90;;;;;;5113152;28;20249;-72
2023/12/25 09:31:11;;;;;;;2.20;2.10;;;12.30;99.90;;;;;;5113578;28;20202;-72
2023/12/25 09:33:37;;;;;;;2.50;2.40;;;12.30;99.90;;;;;;5113475;28;20178;-72
2023/12/25 09:36:03;;;;;;;2.40;2.30;;;12.30;99.90;;;;;;5113173;28;20174;-72
2023/12/25 09:38:28;;;;;;;2.47;2.37;;;12.30;99.90;;;;;;5095185;28;20210;-70
2023/12/25 09:40:57;;;;;;;2.40;2.30;;;12.30;99.90;;;;;;5113153;28;20167;-72
2023/12/25 09:43:24;;;;;;;2.10;2.00;;;12.30;99.90;;;;;;5113468;28;20179;-72
2023/12/25 09:45:50;;;;;;;2.20;2.10;;;12.30;99.90;;;;;;5113426;28;20268;-71
2023/12/25 09:48:17;;;;;;;2.10;2.00;;;12.30;99.90;;;;;;5113496;28;20179;-72
2023/12/25 09:50:43;;;;;;;2.17;2.00;;;12.30;99.90;;;;;;5112434;28;20767;-71
2023/12/25 09:53:09;;;;;;;2.30;2.20;;;12.40;99.90;;;;;;5113394;28;20210;-72
2023/12/25 09:55:34;;;;;;;2.33;2.23;;;12.40;99.90;;;;;;5113173;28;20618;-71
2023/12/25 09:58:06;;;;;;;2.00;1.90;;;12.40;99.90;;;;;;5113064;28;20233;-72
2023/12/25 10:00:32;;;;;;;2.13;2.03;;;12.40;99.90;;;;;;5112234;28;20570;-72
2023/12/25 10:02:59;;;;;;;2.20;2.10;;;12.30;99.90;;;;;;5113034;28;20171;-72
2023/12/25 10:05:26;;;;;;;1.93;1.83;;;12.40;99.90;;;;;;5094765;28;20175;-71
2023/12/25 10:07:51;;;;;;;2.77;2.03;;;12.40;99.90;;;;;;5113156;28;20623;-72
2023/12/25 10:10:17;;;;;;;2.30;2.20;;;12.40;99.90;;;;;;5112763;28;20228;-72
2023/12/25 10:12:44;;;;;;;2.17;2.07;;;12.40;99.90;;;;;;5113194;28;20266;-71
2023/12/25 10:15:13;;;;;;;2.50;2.27;;;12.40;99.90;;;;;;5113050;28;20233;-71
2023/12/25 10:17:39;;;;;;;2.43;2.00;;;12.40;99.90;;;;;;5112554;28;20204;-71
2023/12/25 10:20:07;;;;;;;2.23;2.13;;;12.40;99.90;;;;;;5112689;28;20617;-71
2023/12/25 10:22:39;;;;;;;2.20;2.00;;;12.40;99.90;;;;;;5112636;28;20171;-71
2023/12/25 10:25:11;;;;;;;2.10;2.00;;;12.40;99.90;;;;;;5112675;28;20182;-72
2023/12/25 10:27:42;;;;;;;2.40;2.30;;;12.40;99.90;;;;;;5112671;28;20249;-72
2023/12/25 10:30:21;;;;;;;2.47;2.30;;;12.40;99.90;;;;;;5112899;28;20283;-71
2023/12/25 10:32:48;;;;;;;2.60;2.50;;;12.40;99.90;;;;;;5113105;28;20167;-71
2023/12/25 10:35:19;;;;;;;2.80;2.40;;;12.50;99.90;;;;;;5116320;28;20180;-72
2023/12/25 10:37:46;;;;;;;3.57;3.27;;;12.40;99.90;;;;;;5098688;28;20289;-72
2023/12/25 10:40:21;;;;;;;2.70;2.50;;;12.40;99.90;;;;;;5115678;28;20186;-71
2023/12/25 10:42:51;;;;;;;2.73;2.53;;;12.40;99.90;;;;;;5116259;28;20626;-71
2023/12/25 10:45:24;;;;;;;2.93;2.73;;;12.40;99.90;;;;;;5116077;28;20190;-71
2023/12/25 10:47:53;;;;;;;2.57;2.47;;;12.40;99.90;;;;;;5115551;28;20595;-72
2023/12/25 10:50:27;;;;;;;2.40;2.30;;;12.40;99.90;;;;;;5115859;28;20178;-71
2023/12/25 10:52:54;;;;;;;2.50;2.10;;;12.40;99.90;;;;;;5116060;28;20163;-71
2023/12/25 10:55:30;;;;;;;2.40;2.30;;;12.40;99.90;;;;;;5116247;28;20211;-71
2023/12/25 10:57:56;;;;;;;2.37;2.27;;;12.40;99.90;;;;;;5115577;28;20203;-71
2023/12/25 11:00:22;;;;;;;2.30;2.20;;;12.40;99.90;;;;;;5114974;28;20534;-71
2023/12/25 11:02:52;;;;;;;2.13;2.03;;;12.40;99.90;;;;;;5115439;28;20633;-70
2023/12/25 11:05:20;;;;;;;2.27;2.17;;;12.50;99.90;;;;;;5115687;28;20202;-71
2023/12/25 11:07:45;;;;;;;2.20;2.10;;;12.40;99.90;;;;;;5115561;28;20262;-71
2023/12/25 11:10:13;;;;;;;2.30;2.20;;;12.40;99.90;;;;;;5115770;28;20312;-71
2023/12/25 11:12:39;;;;;;;2.53;2.30;;;12.50;99.90;;;;;;5115007;28;20199;-71
2023/12/25 11:15:06;;;;;;;3.00;2.73;;;12.40;99.90;;;;;;5115680;28;20167;-71
2023/12/25 11:17:34;;;;;;;2.40;2.30;;;12.40;99.90;;;;;;5115201;28;20229;-71
2023/12/25 11:20:03;;;;;;;2.07;1.97;;;12.40;99.90;;;;;;5115487;28;20250;-71
2023/12/25 11:22:33;;;;;;;2.10;2.00;;;12.40;99.90;;;;;;5115628;28;20167;-70
2023/12/25 11:25:00;;;;;;;2.27;2.17;;;12.30;99.90;;;;;;5115654;28;20163;-71
2023/12/25 11:27:29;;;;;;;1.93;1.83;;;12.40;99.90;;;;;;5115491;28;20202;-71
2023/12/25 11:30:11;;;;;;;2.10;2.00;;;12.40;99.90;;;;;;5096819;28;20163;-71
2023/12/25 11:32:38;;;;;;;1.70;1.60;;;12.30;99.90;;;;;;5097424;28;20167;-72
2023/12/25 11:35:04;;;;;;;1.90;1.80;;;12.30;99.90;;;;;;5115392;28;20201;-71
2023/12/25 11:37:30;;;;;;;2.00;1.90;;;12.20;99.90;;;;;;5115135;28;20240;-72
2023/12/25 11:40:05;;;;;;;1.80;1.70;;;12.30;99.90;;;;;;5114837;28;20171;-72
2023/12/25 11:42:34;;;;;;;1.63;1.53;;;12.30;99.90;;;;;;5115516;28;20678;-72
2023/12/25 11:45:07;;;;;;;1.53;1.43;;;12.30;99.90;;;;;;5114554;28;20224;-73
2023/12/25 11:47:47;;;;;;;1.40;1.30;;;12.30;99.90;;;;;;5115201;28;20174;-73
2023/12/25 11:50:14;;;;;;;1.37;1.37;;;12.30;99.90;;;;;;5096415;28;20646;-71
2023/12/25 11:52:46;;;;;;;1.83;1.73;;;12.20;99.90;;;;;;5114994;28;20159;-72
2023/12/25 11:55:18;;;;;;;1.60;1.50;;;12.30;99.90;;;;;;5115011;28;20167;-71
2023/12/25 11:57:44;;;;;;;1.60;1.60;;;12.30;99.90;;;;;;5114723;28;20210;-72
2023/12/25 12:00:31;;;;;;;1.40;1.40;;;12.20;99.90;;;;;;5114007;28;20224;-71
2023/12/25 12:02:57;;;;;;;1.83;1.73;;;12.30;99.90;;;;;;5115023;28;20221;-71
2023/12/25 12:05:23;;;;;;;1.87;1.77;;;12.20;99.90;;;;;;5114578;28;20241;-72
2023/12/25 12:07:48;;;;;;;2.20;2.00;;;12.20;99.90;;;;;;5114863;28;20667;-72
2023/12/25 12:10:14;;;;;;;2.03;1.93;;;12.20;99.90;;;;;;5114580;28;20176;-73
2023/12/25 12:12:41;;;;;;;1.90;1.80;;;12.20;99.90;;;;;;5114887;28;20199;-72
2023/12/25 12:15:08;;;;;;;2.40;1.80;;;12.30;99.90;;;;;;5114206;28;20254;-73
2023/12/25 12:17:36;;;;;;;2.23;2.07;;;12.30;99.90;;;;;;5113859;28;20211;-72
2023/12/25 12:20:06;;;;;;;1.97;1.87;;;12.30;99.90;;;;;;5114470;28;20237;-72
2023/12/25 12:22:34;;;;;;;2.00;1.90;;;12.30;99.90;;;;;;5114310;28;20175;-72
2023/12/25 12:25:20;;;;;;;1.93;1.73;;;12.40;99.90;;;;;;5096212;28;20250;-72
2023/12/25 12:27:46;;;;;;;2.30;2.20;;;12.40;99.90;;;;;;5112822;28;20708;-72
2023/12/25 12:30:13;;;;;;;2.00;1.90;;;12.40;99.90;;;;;;5113866;28;20171;-72
2023/12/25 12:32:41;;;;;;;2.03;1.93;;;12.40;99.90;;;;;;5095907;28;20172;-73
2023/12/25 12:35:08;;;;;;;2.47;2.33;;;12.40;99.90;;;;;;5114261;28;20229;-71
2023/12/25 12:37:34;;;;;;;2.80;2.60;;;12.40;99.90;;;;;;5114102;28;20216;-72
2023/12/25 12:40:04;;;;;;;19.83;15.13;;;12.40;99.90;;;;;;5113925;28;20217;-72
2023/12/25 12:42:34;;;;;;;28.40;22.67;;;12.40;99.90;;;;;;5113354;28;20183;-71